Stations météo

Publicité
Besancon, France (7288): Température de l'air & dewpoint: 03.12.2019 13:00:00 - 09.12.2019 13:00:00 (CET)Besancon, France (7288): Température de l'air 5cm: 03.12.2019 13:00:00 - 09.12.2019 13:00:00 (CET)Besancon, France (7288): Température de l'air -20cm & Température de l'air -100cm: 03.12.2019 13:00:00 - 09.12.2019 13:00:00 (CET)Besancon, France (7288): Vitesse du vent & gusts: 03.12.2019 13:00:00 - 09.12.2019 13:00:00 (CET)Besancon, France (7288): Direction du vent: 03.12.2019 13:00:00 - 09.12.2019 13:00:00 (CET)Besancon, France (7288): reduced air pressure: 03.12.2019 13:00:00 - 09.12.2019 13:00:00 (CET)Besancon, France (7288): Ensoleillement: 03.12.2019 13:00:00 - 09.12.2019 13:00:00 (CET)Besancon, France (7288): Quantités de précipitations: 03.12.2019 13:00:00 - 09.12.2019 13:00:00 (CET)
Date & Time tt [°C] td [°C] tt 5cm [°C] tt -20cm [°C] tt -100cm [°C] ff [km/h] ff [knt] fx [km/h] fx [knt] dd ppp [hPa] sd [min] rr [mm]
09.12.2019 13:00:00 6,9 5,5 - - - 22 12 46 25 SW 1009,0 0 -
09.12.2019 12:00:00 6,5 5,4 5,7 7,3 9,5 21 12 44 24 SW 1009,5 0 0,4
09.12.2019 11:00:00 6,3 5,1 5,7 7,3 9,5 20 11 49 26 SW 1009,7 0 1,6
09.12.2019 10:00:00 7,0 4,3 5,7 7,3 9,5 21 12 55 30 SW 1009,1 0 0,2
09.12.2019 09:00:00 7,6 3,8 5,8 7,3 9,5 22 12 48 26 SW 1009,1 0 0,0
09.12.2019 08:00:00 7,4 4,0 5,5 7,3 9,5 24 13 44 24 SW 1009,5 0 0,0
09.12.2019 07:00:00 7,0 4,6 5,4 7,3 9,5 15 8 53 29 SW 1009,9 0 0,8
09.12.2019 06:00:00 6,8 4,6 5,5 7,3 9,5 16 8 47 26 SW 1010,3 0 0,6
09.12.2019 05:00:00 7,6 3,3 5,9 7,4 9,5 23 12 50 27 SSW 1010,6 0 0,0
09.12.2019 04:00:00 8,0 3,6 5,6 7,4 9,5 21 12 41 22 SW 1011,3 0 0,2
09.12.2019 03:00:00 7,6 4,4 5,8 7,3 9,5 16 9 48 26 SW 1012,1 0 0,4
09.12.2019 02:00:00 8,4 3,8 6,9 7,3 9,5 22 12 49 26 SW 1012,3 0 0,0
09.12.2019 01:00:00 8,3 4,3 7,0 7,3 9,5 21 11 42 23 SSW 1012,7 0 0,0
09.12.2019 00:00:00 8,7 5,1 7,2 7,2 9,5 18 10 42 23 SW 1013,2 0 0,0
08.12.2019 23:00:00 9,6 6,5 8,2 7,2 9,5 20 11 43 23 SW 1012,7 0 0,0
08.12.2019 22:00:00 9,6 8,4 8,6 7,2 9,5 16 9 48 26 SW 1012,0 0 0,0
08.12.2019 21:00:00 9,2 8,4 8,4 7,1 9,5 18 10 42 23 SW 1011,6 0 0,2
08.12.2019 20:00:00 9,0 8,1 8,4 7,1 9,5 22 12 49 26 SW 1012,1 0 0,0
08.12.2019 19:00:00 9,9 7,3 8,3 7,0 9,5 12 7 45 24 SSW 1011,9 0 0,2
08.12.2019 18:00:00 9,5 7,6 8,2 7,0 9,5 18 10 33 18 SW 1012,2 0 0,4
08.12.2019 17:00:00 10,1 6,8 8,1 6,9 9,5 10 5 35 19 SSW 1012,3 0 0,2
08.12.2019 16:00:00 10,3 7,0 8,3 6,9 9,5 9 5 30 16 SSW 1012,3 0 0,8
08.12.2019 15:00:00 12,0 5,4 12,0 6,8 9,5 14 7 37 20 SSW 1013,5 0 0,0
08.12.2019 14:00:00 12,0 5,2 12,1 6,8 9,5 13 7 43 23 SSW 1014,3 0 0,0
08.12.2019 13:00:00 11,9 5,1 12,3 6,7 9,5 26 14 48 26 SW 1015,3 0 0,0
08.12.2019 12:00:00 12,0 5,2 11,1 6,6 9,5 18 10 37 20 SW 1016,3 0 0,0
08.12.2019 11:00:00 11,1 5,2 11,0 6,6 9,5 16 9 43 23 SW 1017,5 0 0,0
08.12.2019 10:00:00 11,1 5,4 10,2 6,6 9,6 18 10 36 19 SSW 1017,4 0 0,0
08.12.2019 09:00:00 10,7 5,4 9,3 6,6 9,5 14 7 37 20 SSW 1017,4 0 0,0
08.12.2019 08:00:00 10,0 5,6 8,5 6,6 9,6 10 5 26 14 SSW 1017,6 0 0,0
08.12.2019 07:00:00 9,1 5,8 8,4 6,6 9,6 9 5 31 17 SSW 1017,9 0 0,0
08.12.2019 06:00:00 9,2 5,4 7,2 6,6 9,6 13 7 29 16 SW 1018,5 0 0,0
08.12.2019 05:00:00 8,6 5,7 7,1 6,5 9,6 5 3 23 12 SSW 1018,8 0 0,0
08.12.2019 04:00:00 8,0 6,6 5,1 6,5 9,6 4 2 12 6 SSW 1019,4 0 0,0
08.12.2019 03:00:00 7,4 6,7 4,4 6,5 9,6 5 3 15 8 SSW 1020,6 0 0,0
08.12.2019 02:00:00 8,4 7,2 7,0 6,5 9,6 9 5 17 9 SSW 1020,8 0 0,0
08.12.2019 01:00:00 7,9 7,1 5,9 6,4 9,6 4 2 10 5 S 1021,2 0 0,0
08.12.2019 00:00:00 8,0 7,2 6,4 6,4 9,6 2 1 11 6 SSW 1021,8 0 0,0
07.12.2019 23:00:00 8,4 7,5 7,3 6,4 9,6 6 4 13 7 SW 1022,1 0 0,0
07.12.2019 22:00:00 8,5 7,6 7,7 6,3 9,6 6 3 26 14 SSW 1021,9 0 0,0
07.12.2019 21:00:00 8,5 7,6 7,4 6,2 9,6 7 4 16 9 SW 1022,2 0 0,0
07.12.2019 20:00:00 8,4 7,6 7,8 6,2 9,6 11 6 23 13 SW 1022,2 0 0,0
07.12.2019 19:00:00 8,4 7,8 7,8 6,1 9,6 10 5 21 11 SSW 1022,0 0 0,0
07.12.2019 18:00:00 8,6 7,5 7,8 6,1 9,7 8 4 16 8 SW 1021,6 0 0,0
07.12.2019 17:00:00 8,7 7,5 7,9 6,0 9,7 5 3 16 9 SW 1022,0 0 0,0
07.12.2019 16:00:00 8,8 7,4 8,4 5,9 9,7 10 5 24 13 SW 1021,0 1 0,0
07.12.2019 15:00:00 8,6 7,4 8,3 5,9 9,7 12 6 22 12 SW 1020,7 0 0,0
07.12.2019 14:00:00 8,4 7,8 8,3 5,8 9,7 10 5 22 12 SW 1021,0 0 0,2
07.12.2019 13:00:00 8,5 7,7 8,8 5,7 9,7 13 7 27 14 SW 1021,4 0 0,0
07.12.2019 12:00:00 8,5 7,3 8,3 5,7 9,7 14 7 29 15 SSW 1021,4 0 0,0
07.12.2019 11:00:00 8,0 7,1 7,6 5,6 9,7 13 7 34 18 SW 1021,9 0 0,0
07.12.2019 10:00:00 7,6 6,7 6,9 5,6 9,7 14 8 29 15 SW 1021,3 0 0,0
07.12.2019 09:00:00 7,4 6,3 6,6 5,6 9,8 14 7 35 19 SW 1021,3 0 0,0
07.12.2019 08:00:00 7,2 6,1 6,3 5,5 9,7 14 7 29 16 SW 1021,0 0 0,0
07.12.2019 07:00:00 6,7 6,1 6,1 5,5 9,8 14 8 32 17 SSW 1020,6 0 0,0
07.12.2019 06:00:00 6,5 5,9 5,6 5,4 9,8 17 9 36 19 SSW 1020,1 0 0,2
07.12.2019 05:00:00 5,9 5,6 5,2 5,4 9,8 15 8 32 17 SSW 1019,9 0 1,4
07.12.2019 04:00:00 6,4 4,6 5,3 5,4 9,8 14 7 31 17 SW 1019,5 0 0,6
07.12.2019 03:00:00 8,2 2,8 6,1 5,3 9,8 18 10 37 20 SW 1019,1 0 0,0
07.12.2019 02:00:00 8,9 2,5 7,1 5,3 9,8 16 8 32 18 SW 1018,7 0 0,0
07.12.2019 01:00:00 9,2 2,7 6,8 5,3 9,8 16 9 33 18 SW 1018,7 0 0,0
07.12.2019 00:00:00 8,5 1,4 5,0 5,2 9,9 11 6 20 11 SW 1019,0 0 0,0
06.12.2019 23:00:00 7,2 1,5 4,8 5,2 9,9 5 3 23 12 SSW 1019,3 0 0,0
06.12.2019 22:00:00 7,5 1,1 5,5 5,1 9,9 11 6 26 14 SSW 1019,3 0 0,0
06.12.2019 21:00:00 7,5 0,9 5,3 5,1 9,9 6 3 13 7 WSW 1019,3 0 0,0
06.12.2019 20:00:00 7,9 0,6 5,9 5,1 9,9 4 2 13 7 SW 1019,1 0 0,0
06.12.2019 19:00:00 7,4 1,7 3,7 5,0 9,9 7 4 15 8 SW 1019,2 0 0,0
06.12.2019 18:00:00 5,7 1,8 0,7 5,0 9,9 6 3 10 6 SW 1019,5 0 0,0
06.12.2019 17:00:00 5,5 1,8 2,3 5,0 9,9 4 2 16 9 SSW 1019,6 1 0,0
06.12.2019 16:00:00 6,3 1,8 5,6 4,9 9,9 10 5 20 11 SW 1019,9 6 0,0
06.12.2019 15:00:00 6,8 1,7 8,1 4,8 9,9 9 5 20 11 SW 1020,1 52 0,0
06.12.2019 14:00:00 6,8 1,9 8,5 4,8 9,9 7 4 16 9 WSW 1020,6 51 0,0
06.12.2019 13:00:00 5,2 1,1 9,0 4,8 9,9 8 4 16 9 SW 1021,7 60 0,0
06.12.2019 12:00:00 2,4 1,5 3,3 4,7 10,0 3 2 10 5 W 1023,1 60 0,0
06.12.2019 11:00:00 0,0 -0,1 -0,7 4,7 10,0 5 3 13 7 W 1024,3 49 0,0
06.12.2019 10:00:00 -2,0 -2,1 -1,9 4,8 10,0 4 2 8 5 SSE 1024,6 5 0,0
06.12.2019 09:00:00 -2,3 -2,4 -2,6 4,8 10,0 5 3 10 5 W 1024,9 2 0,0
06.12.2019 08:00:00 -1,3 -1,3 -1,2 4,8 10,0 0 0 4 2 N 1024,2 0 0,0
06.12.2019 07:00:00 -1,1 -1,1 -1,0 4,7 10,0 0 0 4 2 N 1024,4 0 0,0
06.12.2019 06:00:00 -1,2 -1,2 -0,9 4,7 10,0 0 0 4 2 N 1024,6 0 0,0
06.12.2019 05:00:00 -1,3 -1,3 -1,1 4,7 10,0 0 0 4 2 N 1024,9 0 0,0
06.12.2019 04:00:00 -1,4 -1,4 -1,2 4,7 10,1 0 0 6 4 N 1025,2 0 0,0
06.12.2019 03:00:00 -1,4 -1,4 -1,3 4,7 10,1 0 0 4 2 N 1025,6 0 0,0
06.12.2019 02:00:00 -1,6 -1,6 -1,4 4,7 10,1 0 0 6 4 N 1025,3 0 0,0
06.12.2019 01:00:00 -1,6 -1,6 -1,3 4,7 10,1 0 0 5 3 N 1025,6 0 0,0
06.12.2019 00:00:00 -1,4 -1,4 -1,2 4,7 10,1 0 0 6 4 N 1025,8 0 0,0
05.12.2019 23:00:00 -1,3 -1,3 -1,2 4,7 10,1 0 0 10 5 N 1026,0 0 0,0
05.12.2019 22:00:00 -1,3 -1,3 -1,0 4,7 10,1 5 3 10 5 SW 1026,2 0 0,0
05.12.2019 21:00:00 -1,0 -1,0 -1,0 4,7 10,1 3 1 10 5 WSW 1026,3 0 0,0
05.12.2019 20:00:00 -1,2 -1,2 -0,9 4,7 10,1 2 1 6 3 W 1026,2 0 0,0
05.12.2019 19:00:00 -1,0 -1,0 -1,0 4,7 10,2 0 0 8 4 N 1025,8 0 0,0
05.12.2019 18:00:00 -1,2 -1,2 -1,0 4,7 10,2 4 2 10 6 W 1025,8 0 0,0
05.12.2019 17:00:00 -0,9 -0,9 -0,9 4,7 10,2 0 0 5 3 N 1025,3 0 0,0
05.12.2019 16:00:00 -0,7 -0,8 0,1 4,7 10,2 2 1 9 5 SW 1025,3 0 0,0
05.12.2019 15:00:00 -0,8 -1,1 0,6 4,7 10,2 4 2 8 4 WSW 1025,4 1 0,0
05.12.2019 14:00:00 -0,5 -1,3 2,4 4,7 10,2 7 4 12 7 W 1025,2 40 0,0
05.12.2019 13:00:00 2,7 -0,2 8,1 4,8 10,2 6 3 11 6 W 1024,9 60 0,0
05.12.2019 12:00:00 2,4 -0,7 2,3 4,8 10,2 4 2 9 5 SW 1024,7 60 0,0
05.12.2019 11:00:00 0,5 -0,5 -3,1 4,9 10,2 0 0 5 3 N 1025,2 58 0,0
05.12.2019 10:00:00 -1,5 -2,1 -6,9 4,9 10,3 2 1 4 2 SW 1025,0 21 0,0
05.12.2019 09:00:00 -3,9 -4,2 -8,4 5,0 10,3 0 0 2 1 N 1025,1 0 0,0
05.12.2019 08:00:00 -4,1 -4,4 -8,5 5,0 10,3 2 1 3 2 NNE 1024,5 0 0,0
05.12.2019 07:00:00 -4,1 -4,6 -8,3 5,1 10,3 0 0 0 0 N 1024,2 0 0,0
05.12.2019 06:00:00 -4,0 -4,5 -8,2 5,1 10,3 0 0 5 3 N 1024,0 0 0,0
05.12.2019 05:00:00 -3,6 -4,1 -7,8 5,2 10,3 0 0 3 2 N 1023,9 0 0,0
05.12.2019 04:00:00 -3,2 -3,3 -7,8 5,3 10,4 0 0 4 2 N 1023,6 0 0,0
05.12.2019 03:00:00 -3,3 -3,4 -7,6 5,3 10,3 3 1 5 3 NE 1023,3 0 0,0
05.12.2019 02:00:00 -2,8 -2,9 -7,4 5,3 10,4 0 0 4 2 N 1023,4 0 0,0
05.12.2019 01:00:00 -2,8 -3,2 -7,1 5,4 10,4 0 0 5 3 N 1023,1 0 0,0
05.12.2019 00:00:00 -2,5 -3,1 -6,9 5,4 10,4 0 0 7 4 N 1023,1 0 0,0
04.12.2019 23:00:00 -2,3 -3,0 -6,6 5,5 10,4 0 0 6 3 N 1022,5 0 0,0
04.12.2019 22:00:00 -2,0 -2,3 -6,4 5,5 10,4 2 1 4 2 NE 1022,1 0 0,0
04.12.2019 21:00:00 -1,7 -2,4 -6,1 5,5 10,4 0 0 4 2 N 1022,2 0 0,0
04.12.2019 20:00:00 -0,7 -1,7 -5,5 5,5 10,4 0 0 4 2 N 1021,6 0 0,0
04.12.2019 19:00:00 -0,1 -1,7 -4,9 5,5 10,4 0 0 5 3 N 1021,2 0 0,0
04.12.2019 18:00:00 1,3 -1,3 -4,0 5,5 10,4 0 0 2 1 N 1020,9 0 0,0
04.12.2019 17:00:00 3,1 -1,1 -2,1 5,5 10,4 0 0 8 4 N 1020,3 19 0,0
04.12.2019 16:00:00 5,4 -0,4 3,6 5,5 10,4 4 2 10 5 W 1019,8 56 0,0
04.12.2019 15:00:00 6,0 -0,7 9,6 5,5 10,4 3 1 8 5 W 1019,0 53 0,0
04.12.2019 14:00:00 5,5 -0,4 8,6 5,6 10,4 4 2 10 5 NW 1019,0 60 0,0
04.12.2019 13:00:00 5,5 -1,0 13,9 5,6 10,4 0 0 6 3 N 1019,3 60 0,0
04.12.2019 12:00:00 3,3 -0,9 2,6 5,7 10,4 2 1 9 5 N 1020,0 60 0,0
04.12.2019 11:00:00 0,8 -1,9 -3,1 5,8 10,4 5 3 8 4 NNE 1021,2 60 0,0
04.12.2019 10:00:00 -1,1 -2,2 -6,5 5,9 10,5 0 0 5 3 N 1022,0 21 0,0
04.12.2019 09:00:00 -3,5 -4,0 -8,1 5,9 10,5 0 0 0 0 N 1022,6 0 0,0
04.12.2019 08:00:00 -3,9 -4,4 -8,2 6,0 10,5 0 0 0 0 N 1022,6 0 0,0
04.12.2019 07:00:00 -3,9 -4,4 -8,0 6,1 10,5 0 0 3 2 N 1022,6 0 0,0
04.12.2019 06:00:00 -3,3 -3,7 -7,8 6,1 10,5 0 0 4 2 N 1022,9 0 0,0
04.12.2019 05:00:00 -3,8 -4,3 -7,7 6,2 10,5 2 1 4 2 NNE 1023,6 0 0,0
04.12.2019 04:00:00 -3,1 -3,8 -7,6 6,3 10,5 0 0 2 1 N 1023,6 0 0,0
04.12.2019 03:00:00 -2,4 -3,1 -7,2 6,4 10,5 0 0 0 0 N 1023,7 0 0,0
04.12.2019 02:00:00 -2,1 -3,1 -7,0 6,4 10,5 0 0 0 0 N 1023,8 0 0,0
04.12.2019 01:00:00 -1,2 -2,9 -6,7 6,5 10,5 0 0 5 3 N 1024,2 0 0,0
04.12.2019 00:00:00 -0,8 -2,5 -6,1 6,5 10,5 0 0 8 4 N 1024,5 0 0,0
03.12.2019 23:00:00 -0,3 -2,5 -5,4 6,6 10,5 0 0 7 4 N 1024,6 0 0,0
03.12.2019 22:00:00 0,2 -2,7 -4,7 6,6 10,5 0 0 9 5 N 1024,7 0 0,0
03.12.2019 21:00:00 0,3 -2,6 -4,6 6,6 10,5 0 0 10 5 N 1025,0 0 0,0
03.12.2019 20:00:00 0,1 -2,4 -4,6 6,7 10,6 3 1 9 5 NE 1025,4 0 0,0
03.12.2019 19:00:00 0,5 -2,2 -3,8 6,7 10,6 4 2 11 6 NNE 1025,4 0 0,0
03.12.2019 18:00:00 1,4 -2,2 -2,7 6,7 10,5 4 2 13 7 NNE 1025,7 0 0,0
03.12.2019 17:00:00 2,8 -1,9 -0,9 6,7 10,5 3 1 22 12 NE 1025,6 17 0,0
03.12.2019 16:00:00 4,5 -1,3 2,7 6,7 10,6 8 4 22 12 NE 1025,2 60 0,0
03.12.2019 15:00:00 5,3 -1,2 8,3 6,7 10,6 9 5 32 18 NE 1025,0 60 0,0
03.12.2019 14:00:00 5,7 -1,0 7,8 6,7 10,6 6 3 34 18 NE 1025,4 60 0,0
03.12.2019 13:00:00 4,7 -1,8 11,6 6,8 10,5 10 6 31 17 NE 1025,9 60 0,0

tt = Température de l'air
td = dewpoint
tt 5cm = Température de l'air 5cm
tt -20cm = Température de l'air -20cm
tt -100cm = Température de l'air -100cm
ff = Vitesse du vent
fx = gusts
dd = Direction du vent
ppp = reduced air pressure
sd = Ensoleillement
rr = Quantités de précipitations

stations d'obs. à proximité